Rutland, Vermont
Current Conditions -  °F | °C
As of 10:55 AM on Thursday 23 Oct 2014 (Local Time) from KRUT Reporting Station
Overcast Overcast  
Wind Chill: 35°   Ceiling: 600
Heat Index: 41°   Visibility: 7mi
Dew Point: 39°   Wind: 9mph
Humidity: 93%   Direction: 320°NW
Pressure: 29.86"   Gusts: 17mph
Location:  43.6°N, 72.97°W
Report Text: KRUT 231455Z 32008G15KT 7SM OVC006 05/04 A2986 RMK AO1 57003
Loading
Personal Weather Stations






























Interactive Weather Map
Tropical Storm Tracking
New forecast layout! Learn more

10-Day Weather Forecast

Advertisements
Track Severe Weather on mobile